Portada
METAR-TAF:

METAR-TAF

Aeroports :

Cobija, Bolívia

latitud: 11-02S, longitud: 068-47W, altitud: 235 m

Observació

L'informe es va fer fa 5 hores i 46 minuts, a les 16:00 UTC
Vent 4 kt del Est/Sud-Est
Temperatura 28°C
Humitat 70%
Pressió 1018 hPa
Visibilitat 10 km o més
Escasses núvols a una alçada de 1700 ft

METAR: SLCO 261600Z 12004KT 9999 FEW017 28/22 Q1018

Hora: 17:46 (21:46 UTC)

Pronòstic

L'informe es va fer fa 5 hores i 46 minuts, a les 16:00 UTC
Pronòstic vàlid del 26 a les 18 UTC al 27 a les 18 UTC
Vent 5 kt del Sud/Sud-Est
Visibilitat 10 km o més
Evolucionant progressivament
l' 26 a les 22 UTC al 27 a les 02 UTC
Vent 10 kt del Nord/Nord-Est
Visibilitat 10 km o més
Evolucionant progressivament
l' 27 a les 01 UTC al 27 a les 03 UTC
Vent kt del Nord
Evolucionant progressivament
l' 27 a les 14 UTC al 27 a les 16 UTC
Vent 10 kt del Nord-Est

TAF: SLCO 261600Z 2618/2718 16005KT 9999 NSC TX29/2620Z TN16/2710Z BECMG 2622/2702 00000KT SLAL 261600Z 2618/2718 02010KT 9999 NSC TX21/2619Z TN01/2710Z BECMG 2701/2703 00000KT BECMG 2714/2716 04010KT

Observacions i pronòstics meteorològics de més de 4000 aeroports (METAR i TAF).

Les estacions disponibles són els punts grocs i vermells al mapa.

Posi el ratolí al punt desitjat per veure el nom de l'estació.

Feu clic per veure les observacions i els pronòstics meteorològics.

Per canviar el mapa: feu clic els botons verds amb una creu de color negre per apropar; al botó verd amb un guió per allunyar la imatge; o en les fletxes verdes per a mapes adjacents.


METAR-TAF: